createdAt,value
2022-11-21T00:02:25.907Z,49.14
2022-11-21T00:04:54.300Z,48.96
2022-11-21T00:07:22.652Z,49.04
2022-11-21T00:09:52.480Z,48.91
2022-11-21T00:12:20.812Z,49.06
2022-11-21T00:14:49.129Z,49.19
2022-11-21T00:17:17.523Z,49.31
2022-11-21T00:19:45.968Z,49.25
2022-11-21T00:22:14.331Z,49.15
2022-11-21T00:24:42.714Z,48.93
2022-11-21T00:27:12.423Z,49.01
2022-11-21T00:29:40.785Z,49.18
2022-11-21T00:32:09.145Z,49.21
2022-11-21T00:34:37.479Z,49.44
2022-11-21T00:37:05.836Z,49.51
2022-11-21T00:39:34.181Z,49.27
2022-11-21T00:42:02.556Z,49.43
2022-11-21T00:44:32.476Z,49.39
2022-11-21T00:47:00.826Z,49.37
2022-11-21T00:49:29.163Z,49.64
2022-11-21T00:51:57.584Z,49.52
2022-11-21T00:54:26.340Z,49.35
2022-11-21T00:56:54.967Z,49.44
2022-11-21T00:59:23.339Z,49.48
2022-11-21T01:01:53.200Z,49.55
2022-11-21T01:04:21.664Z,49.61
2022-11-21T01:06:50.038Z,49.65
2022-11-21T01:09:18.438Z,49.78
2022-11-21T01:11:46.781Z,49.82
2022-11-21T01:14:15.106Z,49.85
2022-11-21T01:16:43.888Z,49.72
2022-11-21T01:19:13.688Z,49.89
2022-11-21T01:21:42.065Z,49.74
2022-11-21T01:24:13.032Z,49.84
2022-11-21T01:26:41.444Z,49.94
2022-11-21T01:29:11.274Z,50.01
2022-11-21T01:31:39.710Z,50.02
2022-11-21T01:34:08.115Z,50.07
2022-11-21T01:36:37.993Z,50.22
2022-11-21T01:39:09.046Z,50.20
2022-11-21T01:41:39.864Z,49.99
2022-11-21T01:44:19.104Z,49.99
2022-11-21T01:46:48.011Z,50.09
2022-11-21T01:49:20.311Z,50.39
2022-11-21T01:51:55.175Z,50.28
2022-11-21T01:54:30.529Z,50.34
2022-11-21T01:57:09.165Z,50.66
2022-11-21T01:59:43.817Z,50.48
2022-11-21T02:02:14.836Z,50.41
2022-11-21T02:04:45.571Z,50.44
2022-11-21T02:07:19.156Z,50.60
2022-11-21T02:09:52.347Z,50.50
2022-11-21T02:12:27.794Z,50.49
2022-11-21T02:14:57.692Z,50.40
2022-11-21T02:17:27.986Z,50.39
2022-11-21T02:19:59.536Z,50.17
2022-11-21T02:22:43.939Z,49.90
2022-11-21T02:25:18.248Z,49.95
2022-11-21T02:27:47.401Z,49.75
2022-11-21T02:30:16.303Z,50.06
2022-11-21T02:32:47.878Z,49.81
2022-11-21T02:35:19.147Z,49.92
2022-11-21T02:37:52.521Z,49.75
2022-11-21T02:40:26.766Z,50.06
2022-11-21T02:43:02.787Z,49.91
2022-11-21T02:45:37.745Z,50.16
2022-11-21T02:48:06.659Z,50.10
2022-11-21T02:50:37.366Z,49.93
2022-11-21T02:53:09.318Z,50.02
2022-11-21T02:55:39.339Z,50.16
2022-11-21T02:58:07.996Z,50.42
2022-11-21T03:00:38.985Z,50.44
2022-11-21T03:03:07.464Z,50.42
2022-11-21T03:05:36.283Z,50.62
2022-11-21T03:08:05.720Z,50.92
2022-11-21T03:10:34.438Z,50.70
2022-11-21T03:13:04.300Z,50.78
2022-11-21T03:15:35.289Z,50.58
2022-11-21T03:18:05.369Z,50.65
2022-11-21T03:20:35.631Z,50.70
2022-11-21T03:23:04.488Z,50.71
2022-11-21T03:25:33.061Z,50.60
2022-11-21T03:28:01.388Z,50.66
2022-11-21T03:30:31.294Z,50.79
2022-11-21T03:33:00.073Z,50.67
2022-11-21T03:35:28.612Z,50.40
2022-11-21T03:37:56.926Z,50.44
2022-11-21T03:40:25.289Z,50.42
2022-11-21T03:42:53.651Z,50.55
2022-11-21T03:45:22.118Z,50.47
2022-11-21T03:47:51.808Z,50.52
2022-11-21T03:50:21.627Z,50.24
2022-11-21T03:52:50.052Z,50.16
2022-11-21T03:55:18.359Z,50.34
2022-11-21T03:57:46.685Z,50.44
2022-11-21T04:00:17.234Z,50.45
2022-11-21T04:02:45.645Z,50.28
2022-11-21T04:05:15.485Z,50.10
2022-11-21T04:07:43.924Z,49.92
2022-11-21T04:10:12.511Z,49.98
2022-11-21T04:12:40.840Z,49.95
2022-11-21T04:15:13.704Z,49.70
2022-11-21T04:17:42.697Z,50.01
2022-11-21T04:20:14.142Z,49.53
2022-11-21T04:22:43.529Z,49.62
2022-11-21T04:25:13.782Z,49.44
2022-11-21T04:27:42.136Z,49.72
2022-11-21T04:30:12.062Z,49.35
2022-11-21T04:32:40.395Z,49.10
2022-11-21T04:35:09.828Z,49.26
2022-11-21T04:37:40.898Z,49.00
2022-11-21T04:40:10.739Z,48.87
2022-11-21T04:42:41.989Z,48.65
2022-11-21T04:45:11.553Z,48.64
2022-11-21T04:47:40.294Z,49.01
2022-11-21T04:50:11.135Z,49.11
2022-11-21T04:52:41.071Z,49.54
2022-11-21T04:55:10.855Z,49.69
2022-11-21T04:57:39.191Z,49.58
2022-11-21T05:00:09.963Z,50.09
2022-11-21T05:02:38.329Z,49.85
2022-11-21T05:05:07.921Z,50.07
2022-11-21T05:07:36.737Z,50.63
2022-11-21T05:10:08.134Z,50.86
2022-11-21T05:12:54.112Z,50.90
2022-11-21T05:15:24.932Z,50.62
2022-11-21T05:17:53.767Z,51.22
2022-11-21T05:20:22.142Z,50.73
2022-11-21T05:22:53.399Z,50.90
2022-11-21T05:25:23.177Z,50.97
2022-11-21T05:27:51.521Z,51.36
2022-11-21T05:30:20.079Z,51.26
2022-11-21T05:32:48.410Z,51.34
2022-11-21T05:35:17.097Z,51.25
2022-11-21T05:37:45.589Z,51.26
2022-11-21T05:40:14.622Z,51.23
2022-11-21T05:43:02.305Z,50.91
2022-11-21T05:45:30.812Z,51.36
2022-11-21T05:47:59.274Z,51.17
2022-11-21T05:50:27.740Z,50.76
2022-11-21T05:52:56.073Z,50.90
2022-11-21T05:55:24.408Z,50.78
2022-11-21T05:57:54.149Z,50.82
2022-11-21T06:00:23.110Z,51.10
2022-11-21T06:03:08.903Z,50.95
2022-11-21T06:05:37.338Z,50.98
2022-11-21T06:08:06.655Z,51.22
2022-11-21T06:10:35.031Z,50.73
2022-11-21T06:13:22.063Z,50.82
2022-11-21T06:16:01.630Z,50.98
2022-11-21T06:18:32.727Z,51.08
2022-11-21T06:21:06.268Z,50.81
2022-11-21T06:23:35.732Z,50.56
2022-11-21T06:26:08.142Z,51.18
2022-11-21T06:28:41.503Z,50.75
2022-11-21T06:31:12.142Z,50.77
2022-11-21T06:33:41.249Z,50.75
2022-11-21T06:36:12.316Z,50.74
2022-11-21T06:38:40.936Z,50.82
2022-11-21T06:41:12.598Z,50.50
2022-11-21T06:43:43.226Z,50.93
2022-11-21T06:46:12.259Z,50.90
2022-11-21T06:48:41.278Z,50.88
2022-11-21T06:51:14.385Z,50.63
2022-11-21T06:53:42.710Z,50.84
2022-11-21T06:56:11.272Z,50.33
2022-11-21T06:58:41.014Z,50.41
2022-11-21T07:01:11.603Z,50.33
2022-11-21T07:03:40.248Z,50.28
2022-11-21T07:06:09.188Z,50.58
2022-11-21T07:08:40.741Z,50.55
2022-11-21T07:11:27.239Z,50.33
2022-11-21T07:13:56.571Z,50.12
2022-11-21T07:16:26.475Z,50.13
2022-11-21T07:18:55.064Z,50.04
2022-11-21T07:21:23.448Z,49.86
2022-11-21T07:23:51.805Z,49.85
2022-11-21T07:26:20.205Z,49.69
2022-11-21T07:28:48.643Z,49.66
2022-11-21T07:31:18.373Z,49.88
2022-11-21T07:33:47.589Z,49.81
2022-11-21T07:36:16.059Z,49.38
2022-11-21T07:38:44.373Z,49.69
2022-11-21T07:41:12.761Z,49.44
2022-11-21T07:43:41.120Z,49.48
2022-11-21T07:46:09.520Z,49.35
2022-11-21T07:48:39.203Z,49.53
2022-11-21T07:51:07.768Z,49.44
2022-11-21T07:53:36.112Z,49.25
2022-11-21T07:56:04.982Z,49.09
2022-11-21T07:58:33.358Z,49.28
2022-11-21T08:01:06.388Z,49.22
2022-11-21T08:03:35.291Z,49.07
2022-11-21T08:06:06.291Z,49.02
2022-11-21T08:08:34.763Z,48.98
2022-11-21T08:11:06.573Z,48.89
2022-11-21T08:13:35.009Z,48.79
2022-11-21T08:16:05.181Z,48.87
2022-11-21T08:18:33.792Z,48.67
2022-11-21T08:21:05.001Z,48.80
2022-11-21T08:23:33.864Z,48.50
2022-11-21T08:26:02.376Z,48.36
2022-11-21T08:28:30.748Z,48.56
2022-11-21T08:30:59.165Z,48.46
2022-11-21T08:33:27.568Z,48.35
2022-11-21T08:35:55.930Z,48.16
2022-11-21T08:38:25.896Z,48.09
2022-11-21T08:41:28.148Z,47.84
2022-11-21T08:43:56.566Z,47.71
2022-11-21T08:46:27.420Z,47.61
2022-11-21T08:48:56.645Z,47.34
2022-11-21T08:51:25.107Z,47.17
2022-11-21T08:53:54.852Z,47.08
2022-11-21T08:56:23.409Z,46.92
2022-11-21T08:58:51.908Z,46.92
2022-11-21T09:01:20.705Z,46.65
2022-11-21T09:03:49.140Z,46.35
2022-11-21T09:06:17.539Z,46.38
2022-11-21T09:08:47.037Z,46.32
2022-11-21T09:11:16.890Z,46.19
2022-11-21T09:14:05.425Z,46.01
2022-11-21T09:16:51.334Z,45.99
2022-11-21T09:19:19.798Z,45.96
2022-11-21T09:21:49.996Z,45.61
2022-11-21T09:24:19.112Z,45.33
2022-11-21T09:26:48.993Z,45.02
2022-11-21T09:29:17.560Z,44.92
2022-11-21T09:31:46.590Z,44.71
2022-11-21T09:34:15.020Z,44.75
2022-11-21T09:36:43.480Z,44.56
2022-11-21T09:39:11.885Z,44.43
2022-11-21T09:41:55.527Z,44.11
2022-11-21T09:44:58.943Z,43.96
2022-11-21T09:47:30.860Z,43.46
2022-11-21T09:50:02.921Z,43.42
2022-11-21T09:52:39.542Z,43.38
2022-11-21T09:55:17.926Z,43.21
2022-11-21T09:57:50.918Z,43.18
2022-11-21T10:00:23.973Z,43.00
2022-11-21T10:02:53.614Z,42.85
2022-11-21T10:05:34.236Z,42.86
2022-11-21T10:08:16.717Z,42.82
2022-11-21T10:10:57.027Z,41.94
2022-11-21T10:13:45.747Z,42.14
2022-11-21T10:16:23.233Z,42.29
2022-11-21T10:19:21.644Z,42.31
2022-11-21T10:22:20.154Z,42.36
2022-11-21T10:24:58.144Z,42.43
2022-11-21T10:27:35.706Z,42.25
2022-11-21T10:30:15.680Z,42.05
2022-11-21T10:32:47.369Z,41.92
2022-11-21T10:35:19.912Z,41.78
2022-11-21T10:37:53.553Z,41.52
2022-11-21T10:40:38.366Z,41.62
2022-11-21T10:43:33.637Z,41.22
2022-11-21T10:46:03.653Z,40.98
2022-11-21T10:48:32.045Z,40.98
2022-11-21T10:51:30.143Z,40.77
2022-11-21T10:54:25.426Z,40.83
2022-11-21T10:56:55.914Z,40.55
2022-11-21T10:59:30.802Z,40.64
2022-11-21T11:02:03.663Z,40.57
2022-11-21T11:04:45.761Z,40.96
2022-11-21T11:07:25.112Z,41.40
2022-11-21T11:09:54.294Z,41.04
2022-11-21T11:12:50.996Z,41.06
2022-11-21T11:15:25.568Z,40.98
2022-11-21T11:18:02.755Z,40.83
2022-11-21T11:20:40.144Z,40.87
2022-11-21T11:23:28.599Z,40.83
2022-11-21T11:25:58.994Z,40.52
2022-11-21T11:28:28.104Z,40.60
2022-11-21T11:30:59.112Z,40.43
2022-11-21T11:33:40.729Z,40.34
2022-11-21T11:36:15.673Z,40.73
2022-11-21T11:38:55.275Z,40.95
2022-11-21T11:42:19.134Z,41.19
2022-11-21T11:45:35.969Z,41.34
2022-11-21T11:48:10.996Z,41.29
2022-11-21T11:50:44.961Z,41.25
2022-11-21T11:53:19.608Z,41.22
2022-11-21T11:55:53.544Z,41.34
2022-11-21T11:58:30.452Z,41.32
2022-11-21T12:01:06.274Z,40.70
2022-11-21T12:03:44.642Z,40.83
2022-11-21T12:06:20.885Z,40.98
2022-11-21T12:08:55.472Z,41.16
2022-11-21T12:12:03.854Z,41.33
2022-11-21T12:15:02.984Z,40.99
2022-11-21T12:17:40.767Z,41.06
2022-11-21T12:20:19.010Z,41.15
2022-11-21T12:22:51.106Z,41.30
2022-11-21T12:25:22.799Z,41.01
2022-11-21T12:27:56.539Z,40.89
2022-11-21T12:30:56.506Z,40.85
2022-11-21T12:33:25.592Z,40.73
2022-11-21T12:36:23.834Z,39.87
2022-11-21T12:39:18.038Z,40.26
2022-11-21T12:42:12.940Z,40.41
2022-11-21T12:45:07.581Z,40.56
2022-11-21T12:48:59.691Z,40.89
2022-11-21T12:52:22.787Z,40.95
2022-11-21T12:55:19.608Z,41.15
2022-11-21T12:58:25.810Z,41.36
2022-11-21T13:01:24.642Z,41.60
2022-11-21T13:04:01.366Z,41.35
2022-11-21T13:06:34.141Z,41.15
2022-11-21T13:09:06.978Z,41.39
2022-11-21T13:11:59.727Z,41.37
2022-11-21T13:14:45.925Z,41.43
2022-11-21T13:17:30.408Z,41.36
2022-11-21T13:20:03.071Z,41.25
2022-11-21T13:22:55.358Z,41.29
2022-11-21T13:25:48.668Z,41.39
2022-11-21T13:28:37.691Z,41.36
2022-11-21T13:31:34.304Z,41.38
2022-11-21T13:34:03.518Z,41.53
2022-11-21T13:36:43.445Z,41.46
2022-11-21T13:39:38.028Z,41.47
2022-11-21T13:42:41.318Z,41.56
2022-11-21T13:45:45.208Z,41.60
2022-11-21T13:48:36.469Z,41.09
2022-11-21T13:51:53.147Z,41.39
2022-11-21T13:55:04.539Z,41.47
2022-11-21T13:58:03.678Z,41.58
2022-11-21T14:00:58.352Z,41.70
2022-11-21T14:04:14.771Z,41.82
2022-11-21T14:06:44.324Z,42.04
2022-11-21T14:09:28.012Z,41.94
2022-11-21T14:12:00.701Z,41.91
2022-11-21T14:14:39.291Z,41.99
2022-11-21T14:17:28.539Z,42.14
2022-11-21T14:19:59.704Z,42.20
2022-11-21T14:22:35.646Z,42.10
2022-11-21T14:25:11.620Z,41.83
2022-11-21T14:27:45.479Z,42.05
2022-11-21T14:30:37.136Z,42.04
2022-11-21T14:33:32.073Z,41.97
2022-11-21T14:36:07.377Z,41.85
2022-11-21T14:38:43.124Z,41.82
2022-11-21T14:41:34.283Z,41.87
2022-11-21T14:44:17.652Z,42.02
2022-11-21T14:46:47.698Z,42.04
2022-11-21T14:49:29.243Z,42.13
2022-11-21T14:52:16.080Z,42.15
2022-11-21T14:55:22.138Z,42.28
2022-11-21T14:57:43.645Z,42.32
2022-11-21T15:00:51.159Z,42.31
2022-11-21T15:03:21.556Z,42.55
2022-11-21T15:06:06.294Z,42.61
2022-11-21T15:11:31.155Z,42.68
2022-11-21T15:14:19.521Z,42.87
2022-11-21T15:16:50.926Z,42.87
2022-11-21T15:19:22.860Z,42.94
2022-11-21T15:21:54.395Z,43.21
2022-11-21T15:24:33.007Z,43.44
2022-11-21T15:27:01.510Z,43.44
2022-11-21T15:29:33.649Z,43.60
2022-11-21T15:32:14.100Z,43.42
2022-11-21T15:34:58.358Z,43.54
2022-11-21T15:37:28.116Z,43.84
2022-11-21T15:39:56.609Z,43.89
2022-11-21T15:42:39.333Z,43.83
2022-11-21T15:45:26.865Z,44.01
2022-11-21T15:47:56.799Z,44.01
2022-11-21T15:50:26.647Z,43.95
2022-11-21T15:52:57.035Z,44.03
2022-11-21T15:55:29.494Z,43.95
2022-11-21T15:57:57.904Z,44.16
2022-11-21T16:00:26.584Z,44.62
2022-11-21T16:02:55.047Z,44.48
2022-11-21T16:05:23.897Z,44.52
2022-11-21T16:07:52.372Z,44.55
2022-11-21T16:10:27.548Z,44.48
2022-11-21T16:12:57.046Z,44.77
2022-11-21T16:15:25.628Z,44.86
2022-11-21T16:17:54.453Z,44.80
2022-11-21T16:20:23.159Z,44.66
2022-11-21T16:22:51.532Z,44.88
2022-11-21T16:25:22.050Z,44.79
2022-11-21T16:27:56.585Z,44.90
2022-11-21T16:30:25.019Z,45.26
2022-11-21T16:32:55.661Z,45.14
2022-11-21T16:35:24.411Z,45.05
2022-11-21T16:37:54.387Z,45.24
2022-11-21T16:40:24.710Z,45.12
2022-11-21T16:42:56.778Z,45.21
2022-11-21T16:45:25.642Z,45.11
2022-11-21T16:47:54.299Z,45.41
2022-11-21T16:50:24.100Z,45.23
2022-11-21T16:52:53.665Z,45.46
2022-11-21T16:55:24.837Z,45.52
2022-11-21T16:57:55.065Z,45.41
2022-11-21T17:00:24.872Z,45.89
2022-11-21T17:02:57.156Z,45.65
2022-11-21T17:05:27.800Z,45.72
2022-11-21T17:07:58.458Z,45.73
2022-11-21T17:10:33.780Z,45.66
2022-11-21T17:13:03.549Z,45.70
2022-11-21T17:15:32.018Z,45.66
2022-11-21T17:18:01.954Z,46.23
2022-11-21T17:20:31.825Z,45.93
2022-11-21T17:23:03.099Z,46.03
2022-11-21T17:25:35.779Z,45.77
2022-11-21T17:28:05.589Z,45.69
2022-11-21T17:30:38.379Z,45.68
2022-11-21T17:33:07.436Z,46.05
2022-11-21T17:35:38.341Z,45.72
2022-11-21T17:38:07.562Z,46.01
2022-11-21T17:40:38.880Z,46.17
2022-11-21T17:43:10.065Z,45.78
2022-11-21T17:45:41.126Z,46.00
2022-11-21T17:48:10.828Z,46.16
2022-11-21T17:50:40.615Z,46.35
2022-11-21T17:53:10.058Z,46.40
2022-11-21T17:55:40.596Z,46.34
2022-11-21T17:58:13.283Z,46.48
2022-11-21T18:00:45.833Z,46.41
2022-11-21T18:03:15.738Z,46.37
2022-11-21T18:05:51.363Z,46.16
2022-11-21T18:08:21.436Z,46.42
2022-11-21T18:10:56.034Z,46.41
2022-11-21T18:13:25.534Z,46.46
2022-11-21T18:15:54.754Z,46.45
2022-11-21T18:18:25.443Z,46.31
2022-11-21T18:20:55.518Z,46.48
2022-11-21T18:23:26.359Z,46.82
2022-11-21T18:25:57.922Z,46.90
2022-11-21T18:28:27.454Z,46.60
2022-11-21T18:31:06.542Z,46.60
2022-11-21T18:33:37.531Z,46.44
2022-11-21T18:36:11.003Z,46.66
2022-11-21T18:38:54.908Z,46.97
2022-11-21T18:41:39.956Z,47.17
2022-11-21T18:44:10.401Z,47.00
2022-11-21T18:46:41.527Z,47.15
2022-11-21T18:49:11.832Z,46.92
2022-11-21T18:51:41.967Z,46.85
2022-11-21T18:54:13.453Z,47.05
2022-11-21T18:56:54.614Z,47.35
2022-11-21T18:59:25.315Z,47.25
2022-11-21T19:01:55.240Z,47.65
2022-11-21T19:04:26.707Z,47.66
2022-11-21T19:07:00.571Z,47.46
2022-11-21T19:09:35.634Z,48.01
2022-11-21T19:12:08.368Z,47.60
2022-11-21T19:14:41.940Z,47.88
2022-11-21T19:17:12.396Z,48.03
2022-11-21T19:19:43.664Z,47.73
2022-11-21T19:22:13.170Z,48.25
2022-11-21T19:24:43.234Z,47.94
2022-11-21T19:27:14.702Z,48.32
2022-11-21T19:29:44.225Z,47.78
2022-11-21T19:32:15.409Z,48.57
2022-11-21T19:34:47.096Z,48.19
2022-11-21T19:37:16.861Z,48.34
2022-11-21T19:39:49.074Z,48.31
2022-11-21T19:42:23.827Z,48.42
2022-11-21T19:44:53.579Z,48.71
2022-11-21T19:47:23.125Z,48.33
2022-11-21T19:49:54.357Z,48.62
2022-11-21T19:52:27.771Z,48.77
2022-11-21T19:54:59.323Z,48.79
2022-11-21T19:57:31.050Z,48.96
2022-11-21T20:00:01.807Z,48.62
2022-11-21T20:02:35.274Z,49.04
2022-11-21T20:05:05.522Z,48.80
2022-11-21T20:07:37.441Z,49.04
2022-11-21T20:10:09.531Z,49.10
2022-11-21T20:12:41.039Z,48.87
2022-11-21T20:15:12.796Z,49.33
2022-11-21T20:17:44.714Z,49.29
2022-11-21T20:20:15.119Z,49.27
2022-11-21T20:22:45.147Z,49.10
2022-11-21T20:25:15.527Z,49.44
2022-11-21T20:27:49.580Z,49.13
2022-11-21T20:30:25.447Z,49.48
2022-11-21T20:33:00.130Z,49.33
2022-11-21T20:35:29.646Z,49.42
2022-11-21T20:37:59.549Z,49.73
2022-11-21T20:40:29.546Z,49.36
2022-11-21T20:43:07.276Z,49.91
2022-11-21T20:48:29.397Z,49.57
2022-11-21T20:52:09.593Z,49.70
2022-11-21T20:53:53.734Z,49.58
2022-11-21T20:56:25.295Z,49.81
2022-11-21T20:58:56.572Z,49.84
2022-11-21T21:01:29.554Z,49.67
2022-11-21T21:03:59.696Z,49.69
2022-11-21T21:06:29.227Z,49.83
2022-11-21T21:08:59.811Z,50.07
2022-11-21T21:11:51.035Z,50.05
2022-11-21T21:14:19.020Z,49.97
2022-11-21T21:16:48.058Z,50.01
2022-11-21T21:19:17.334Z,49.92
2022-11-21T21:21:46.234Z,50.09
2022-11-21T21:24:15.838Z,50.16
2022-11-21T21:26:47.301Z,49.99
2022-11-21T21:29:20.845Z,50.16
2022-11-21T21:31:52.355Z,50.21
2022-11-21T21:34:22.450Z,49.92
2022-11-21T21:36:51.611Z,50.00
2022-11-21T21:39:20.299Z,50.25
2022-11-21T21:41:48.742Z,50.30
2022-11-21T21:44:19.006Z,50.08
2022-11-21T21:46:47.400Z,50.28
2022-11-21T21:49:15.837Z,50.40
2022-11-21T21:51:44.248Z,50.26
2022-11-21T21:54:18.899Z,50.45
2022-11-21T21:56:47.792Z,50.52
2022-11-21T21:59:18.243Z,50.44
2022-11-21T22:01:49.174Z,50.31
2022-11-21T22:04:17.596Z,50.52
2022-11-21T22:06:45.926Z,50.33
2022-11-21T22:09:14.267Z,50.31
2022-11-21T22:11:42.711Z,50.52
2022-11-21T22:14:14.630Z,50.52
2022-11-21T22:16:43.820Z,50.56
2022-11-21T22:19:13.926Z,50.69
2022-11-21T22:21:42.338Z,50.61
2022-11-21T22:24:31.049Z,50.65
2022-11-21T22:26:59.542Z,50.74
2022-11-21T22:29:28.023Z,51.09
2022-11-21T22:31:56.433Z,50.66
2022-11-21T22:34:26.716Z,50.59
2022-11-21T22:36:55.145Z,50.94
2022-11-21T22:39:23.518Z,51.06
2022-11-21T22:41:55.622Z,50.84
2022-11-21T22:44:27.134Z,50.96
2022-11-21T22:46:55.665Z,50.68
2022-11-21T22:49:25.410Z,51.02
2022-11-21T22:51:53.932Z,50.95
2022-11-21T22:54:22.913Z,51.11
2022-11-21T22:56:51.324Z,51.06
2022-11-21T22:59:19.679Z,51.08
2022-11-21T23:01:48.137Z,51.08
2022-11-21T23:04:18.025Z,51.21
2022-11-21T23:06:48.084Z,51.25
2022-11-21T23:09:16.492Z,51.17
2022-11-21T23:11:44.842Z,51.20
2022-11-21T23:14:13.684Z,51.18
2022-11-21T23:16:42.123Z,51.01
2022-11-21T23:19:10.517Z,50.80
2022-11-21T23:21:38.939Z,51.07
2022-11-21T23:24:09.294Z,51.24
2022-11-21T23:26:37.933Z,51.06
2022-11-21T23:29:08.800Z,51.26
2022-11-21T23:31:37.441Z,51.12
2022-11-21T23:34:05.992Z,51.13
2022-11-21T23:36:34.386Z,51.10
2022-11-21T23:39:02.767Z,51.21
2022-11-21T23:41:32.808Z,51.11
2022-11-21T23:44:01.209Z,51.16
2022-11-21T23:46:30.650Z,51.49
2022-11-21T23:48:59.035Z,51.50
2022-11-21T23:51:27.463Z,51.38
2022-11-21T23:53:55.795Z,51.30
2022-11-21T23:56:24.187Z,51.18
2022-11-21T23:58:53.934Z,51.23
